sensor_id;sensor_type;location;lat;lon;timestamp;pressure;altitude;pressure_sealevel;temperature;humidity
8160;BME280;27404;52.398;9.646;2023-07-29T00:01:14;100095.53;;;16.87;100.00
8160;BME280;27404;52.398;9.646;2023-07-29T00:03:40;100094.91;;;16.91;100.00
8160;BME280;27404;52.398;9.646;2023-07-29T00:06:06;100087.47;;;16.91;100.00
8160;BME280;27404;52.398;9.646;2023-07-29T00:08:31;100088.13;;;16.83;100.00
8160;BME280;27404;52.398;9.646;2023-07-29T00:10:57;100084.59;;;16.77;100.00
8160;BME280;27404;52.398;9.646;2023-07-29T00:13:22;100089.31;;;16.71;100.00
8160;BME280;27404;52.398;9.646;2023-07-29T00:15:48;100087.72;;;16.65;100.00
8160;BME280;27404;52.398;9.646;2023-07-29T00:18:13;100088.28;;;16.62;100.00
8160;BME280;27404;52.398;9.646;2023-07-29T00:20:38;100092.75;;;16.58;100.00
8160;BME280;27404;52.398;9.646;2023-07-29T00:23:04;100096.13;;;16.55;100.00
8160;BME280;27404;52.398;9.646;2023-07-29T00:25:29;100087.00;;;16.54;100.00
8160;BME280;27404;52.398;9.646;2023-07-29T00:27:56;100090.06;;;16.53;100.00
8160;BME280;27404;52.398;9.646;2023-07-29T00:30:21;100092.81;;;16.53;100.00
8160;BME280;27404;52.398;9.646;2023-07-29T00:32:47;100086.78;;;16.51;100.00
8160;BME280;27404;52.398;9.646;2023-07-29T00:35:12;100093.66;;;16.48;100.00
8160;BME280;27404;52.398;9.646;2023-07-29T00:37:38;100093.44;;;16.45;100.00
8160;BME280;27404;52.398;9.646;2023-07-29T00:40:25;100099.22;;;16.43;100.00
8160;BME280;27404;52.398;9.646;2023-07-29T00:42:52;100086.00;;;16.40;100.00
8160;BME280;27404;52.398;9.646;2023-07-29T00:45:18;100081.38;;;16.35;100.00
8160;BME280;27404;52.398;9.646;2023-07-29T00:47:43;100078.88;;;16.34;100.00
8160;BME280;27404;52.398;9.646;2023-07-29T00:50:11;100075.59;;;16.32;100.00
8160;BME280;27404;52.398;9.646;2023-07-29T00:52:37;100081.94;;;16.32;100.00
8160;BME280;27404;52.398;9.646;2023-07-29T00:55:04;100088.53;;;16.36;100.00
8160;BME280;27404;52.398;9.646;2023-07-29T00:57:30;100082.47;;;16.34;100.00
8160;BME280;27404;52.398;9.646;2023-07-29T00:59:55;100086.63;;;16.32;100.00
8160;BME280;27404;52.398;9.646;2023-07-29T01:02:21;100088.56;;;16.31;100.00
8160;BME280;27404;52.398;9.646;2023-07-29T01:04:54;100097.09;;;16.35;100.00
8160;BME280;27404;52.398;9.646;2023-07-29T01:15:22;100075.94;;;16.25;100.00
8160;BME280;27404;52.398;9.646;2023-07-29T01:17:54;100077.84;;;16.24;100.00
8160;BME280;27404;52.398;9.646;2023-07-29T01:20:21;100062.09;;;16.30;100.00
8160;BME280;27404;52.398;9.646;2023-07-29T01:22:49;100056.00;;;16.33;100.00
8160;BME280;27404;52.398;9.646;2023-07-29T01:25:14;100069.22;;;16.36;100.00
8160;BME280;27404;52.398;9.646;2023-07-29T01:27:43;100067.00;;;16.38;100.00
8160;BME280;27404;52.398;9.646;2023-07-29T01:30:08;100066.44;;;16.41;100.00
8160;BME280;27404;52.398;9.646;2023-07-29T01:32:43;100064.47;;;16.42;100.00
8160;BME280;27404;52.398;9.646;2023-07-29T01:35:21;100068.34;;;16.41;100.00
8160;BME280;27404;52.398;9.646;2023-07-29T01:37:52;100070.00;;;16.42;100.00
8160;BME280;27404;52.398;9.646;2023-07-29T01:40:21;100073.59;;;16.42;100.00
8160;BME280;27404;52.398;9.646;2023-07-29T01:42:47;100074.41;;;16.43;100.00
8160;BME280;27404;52.398;9.646;2023-07-29T01:45:13;100070.78;;;16.48;100.00
8160;BME280;27404;52.398;9.646;2023-07-29T01:47:39;100077.56;;;16.61;100.00
8160;BME280;27404;52.398;9.646;2023-07-29T01:50:07;100066.75;;;16.64;100.00
8160;BME280;27404;52.398;9.646;2023-07-29T01:52:32;100065.06;;;16.68;100.00
8160;BME280;27404;52.398;9.646;2023-07-29T01:54:58;100068.31;;;16.76;100.00
8160;BME280;27404;52.398;9.646;2023-07-29T01:57:23;100067.16;;;16.82;100.00
8160;BME280;27404;52.398;9.646;2023-07-29T01:59:49;100057.69;;;16.88;100.00
8160;BME280;27404;52.398;9.646;2023-07-29T02:02:14;100056.81;;;16.93;100.00
8160;BME280;27404;52.398;9.646;2023-07-29T02:04:40;100056.22;;;16.96;100.00
8160;BME280;27404;52.398;9.646;2023-07-29T02:07:05;100053.97;;;17.03;100.00
8160;BME280;27404;52.398;9.646;2023-07-29T02:09:31;100056.97;;;17.07;100.00
8160;BME280;27404;52.398;9.646;2023-07-29T02:11:57;100051.69;;;17.10;100.00
8160;BME280;27404;52.398;9.646;2023-07-29T02:14:23;100046.69;;;17.12;100.00
8160;BME280;27404;52.398;9.646;2023-07-29T02:16:48;100050.50;;;17.16;100.00
8160;BME280;27404;52.398;9.646;2023-07-29T02:19:14;100046.63;;;17.17;100.00
8160;BME280;27404;52.398;9.646;2023-07-29T02:21:40;100040.81;;;17.19;100.00
8160;BME280;27404;52.398;9.646;2023-07-29T02:24:05;100039.94;;;17.24;100.00
8160;BME280;27404;52.398;9.646;2023-07-29T02:26:31;100028.28;;;17.27;100.00
8160;BME280;27404;52.398;9.646;2023-07-29T02:28:56;100028.28;;;17.27;100.00
8160;BME280;27404;52.398;9.646;2023-07-29T02:31:24;100027.69;;;17.30;100.00
8160;BME280;27404;52.398;9.646;2023-07-29T02:33:49;100030.47;;;17.30;100.00
8160;BME280;27404;52.398;9.646;2023-07-29T02:36:15;100026.25;;;17.32;100.00
8160;BME280;27404;52.398;9.646;2023-07-29T02:38:41;100025.16;;;17.34;100.00
8160;BME280;27404;52.398;9.646;2023-07-29T02:41:10;100025.16;;;17.34;100.00
8160;BME280;27404;52.398;9.646;2023-07-29T02:43:37;100026.00;;;17.34;100.00
8160;BME280;27404;52.398;9.646;2023-07-29T02:46:02;100026.00;;;17.34;100.00
8160;BME280;27404;52.398;9.646;2023-07-29T02:48:31;100026.44;;;17.41;100.00
8160;BME280;27404;52.398;9.646;2023-07-29T02:50:57;100019.50;;;17.44;100.00
8160;BME280;27404;52.398;9.646;2023-07-29T02:53:22;100024.81;;;17.40;100.00
8160;BME280;27404;52.398;9.646;2023-07-29T02:55:48;100019.88;;;17.37;100.00
8160;BME280;27404;52.398;9.646;2023-07-29T02:58:14;100021.00;;;17.36;100.00
8160;BME280;27404;52.398;9.646;2023-07-29T03:00:39;100024.88;;;17.35;100.00
8160;BME280;27404;52.398;9.646;2023-07-29T03:03:07;100033.69;;;17.37;100.00
8160;BME280;27404;52.398;9.646;2023-07-29T03:05:33;100036.97;;;17.39;100.00
8160;BME280;27404;52.398;9.646;2023-07-29T03:07:59;100035.84;;;17.40;100.00
8160;BME280;27404;52.398;9.646;2023-07-29T03:10:24;100032.44;;;17.49;100.00
8160;BME280;27404;52.398;9.646;2023-07-29T03:12:50;100031.31;;;17.50;100.00
8160;BME280;27404;52.398;9.646;2023-07-29T03:15:16;100028.25;;;17.51;100.00
8160;BME280;27404;52.398;9.646;2023-07-29T03:17:42;100025.47;;;17.51;100.00
8160;BME280;27404;52.398;9.646;2023-07-29T03:20:07;100015.78;;;17.54;100.00
8160;BME280;27404;52.398;9.646;2023-07-29T03:22:33;100016.59;;;17.54;100.00
8160;BME280;27404;52.398;9.646;2023-07-29T03:24:58;100017.63;;;17.58;100.00
8160;BME280;27404;52.398;9.646;2023-07-29T03:27:24;100007.91;;;17.61;100.00
8160;BME280;27404;52.398;9.646;2023-07-29T03:29:49;100005.16;;;17.61;100.00
8160;BME280;27404;52.398;9.646;2023-07-29T03:32:15;100008.44;;;17.63;100.00
8160;BME280;27404;52.398;9.646;2023-07-29T03:34:40;100005.69;;;17.63;100.00
8160;BME280;27404;52.398;9.646;2023-07-29T03:37:06;99995.75;;;17.62;100.00
8160;BME280;27404;52.398;9.646;2023-07-29T03:39:31;100011.38;;;17.72;100.00
8160;BME280;27404;52.398;9.646;2023-07-29T03:41:58;99997.53;;;17.72;100.00
8160;BME280;27404;52.398;9.646;2023-07-29T03:44:23;100009.41;;;17.72;100.00
8160;BME280;27404;52.398;9.646;2023-07-29T03:46:48;100009.19;;;17.69;100.00
8160;BME280;27404;52.398;9.646;2023-07-29T03:49:14;100009.66;;;17.76;100.00
8160;BME280;27404;52.398;9.646;2023-07-29T03:51:39;100010.78;;;17.75;100.00
8160;BME280;27404;52.398;9.646;2023-07-29T03:54:05;100007.47;;;17.73;100.00
8160;BME280;27404;52.398;9.646;2023-07-29T03:56:31;100003.38;;;17.70;100.00
8160;BME280;27404;52.398;9.646;2023-07-29T03:59:04;99996.19;;;17.69;100.00
8160;BME280;27404;52.398;9.646;2023-07-29T04:01:29;99995.06;;;17.70;100.00
8160;BME280;27404;52.398;9.646;2023-07-29T04:03:55;99995.59;;;17.72;100.00
8160;BME280;27404;52.398;9.646;2023-07-29T04:06:21;99988.88;;;17.79;100.00
8160;BME280;27404;52.398;9.646;2023-07-29T04:08:46;99987.06;;;17.88;100.00
8160;BME280;27404;52.398;9.646;2023-07-29T04:11:12;99994.03;;;17.85;100.00
8160;BME280;27404;52.398;9.646;2023-07-29T04:13:37;99991.56;;;17.84;100.00
8160;BME280;27404;52.398;9.646;2023-07-29T04:16:04;99992.69;;;17.83;100.00
8160;BME280;27404;52.398;9.646;2023-07-29T04:18:29;99987.38;;;17.86;100.00
8160;BME280;27404;52.398;9.646;2023-07-29T04:20:55;99986.75;;;17.89;100.00
8160;BME280;27404;52.398;9.646;2023-07-29T04:23:20;99980.63;;;17.92;100.00
8160;BME280;27404;52.398;9.646;2023-07-29T04:25:46;99973.69;;;17.95;100.00
8160;BME280;27404;52.398;9.646;2023-07-29T04:28:11;99971.66;;;18.01;100.00
8160;BME280;27404;52.398;9.646;2023-07-29T04:30:37;99968.00;;;18.05;100.00
8160;BME280;27404;52.398;9.646;2023-07-29T04:33:02;99963.59;;;18.04;100.00
8160;BME280;27404;52.398;9.646;2023-07-29T04:35:28;99965.03;;;18.02;100.00
8160;BME280;27404;52.398;9.646;2023-07-29T04:37:54;99960.97;;;17.94;100.00
8160;BME280;27404;52.398;9.646;2023-07-29T04:40:19;99970.16;;;17.89;100.00
8160;BME280;27404;52.398;9.646;2023-07-29T04:42:45;99983.78;;;17.86;100.00
8160;BME280;27404;52.398;9.646;2023-07-29T04:45:10;99987.47;;;17.81;100.00
8160;BME280;27404;52.398;9.646;2023-07-29T04:47:36;99993.28;;;17.80;100.00
8160;BME280;27404;52.398;9.646;2023-07-29T04:50:02;99994.91;;;17.81;100.00
8160;BME280;27404;52.398;9.646;2023-07-29T04:52:27;99993.19;;;17.85;100.00
8160;BME280;27404;52.398;9.646;2023-07-29T04:54:53;99992.59;;;17.88;100.00
8160;BME280;27404;52.398;9.646;2023-07-29T04:57:18;99976.41;;;18.00;100.00
8160;BME280;27404;52.398;9.646;2023-07-29T04:59:44;99974.44;;;18.01;100.00
8160;BME280;27404;52.398;9.646;2023-07-29T05:02:09;99970.91;;;17.95;100.00
8160;BME280;27404;52.398;9.646;2023-07-29T05:04:35;99966.47;;;17.99;100.00
8160;BME280;27404;52.398;9.646;2023-07-29T05:07:00;99969.28;;;17.94;100.00
8160;BME280;27404;52.398;9.646;2023-07-29T05:09:26;99981.47;;;17.93;100.00
8160;BME280;27404;52.398;9.646;2023-07-29T05:11:51;99979.72;;;17.97;100.00
8160;BME280;27404;52.398;9.646;2023-07-29T05:14:17;99994.03;;;18.04;100.00
8160;BME280;27404;52.398;9.646;2023-07-29T05:16:43;99992.59;;;18.07;100.00
8160;BME280;27404;52.398;9.646;2023-07-29T05:19:09;99979.78;;;18.11;100.00
8160;BME280;27404;52.398;9.646;2023-07-29T05:21:35;99987.22;;;18.16;100.00
8160;BME280;27404;52.398;9.646;2023-07-29T05:24:00;99979.09;;;18.19;100.00
8160;BME280;27404;52.398;9.646;2023-07-29T05:26:26;99978.50;;;18.23;100.00
8160;BME280;27404;52.398;9.646;2023-07-29T05:28:51;99966.50;;;18.27;100.00
8160;BME280;27404;52.398;9.646;2023-07-29T05:31:17;99963.38;;;18.34;100.00
8160;BME280;27404;52.398;9.646;2023-07-29T05:33:43;99960.69;;;18.43;100.00
8160;BME280;27404;52.398;9.646;2023-07-29T05:36:08;99958.59;;;18.54;100.00
8160;BME280;27404;52.398;9.646;2023-07-29T05:38:34;99956.94;;;18.67;100.00
8160;BME280;27404;52.398;9.646;2023-07-29T05:40:59;99953.34;;;18.80;100.00
8160;BME280;27404;52.398;9.646;2023-07-29T05:43:26;99944.97;;;18.99;100.00
8160;BME280;27404;52.398;9.646;2023-07-29T05:45:52;99943.00;;;19.14;100.00
8160;BME280;27404;52.398;9.646;2023-07-29T05:48:19;99955.25;;;19.35;100.00
8160;BME280;27404;52.398;9.646;2023-07-29T05:50:44;99951.81;;;19.52;100.00
8160;BME280;27404;52.398;9.646;2023-07-29T05:53:10;99952.19;;;19.60;100.00
8160;BME280;27404;52.398;9.646;2023-07-29T05:55:35;99946.63;;;19.60;100.00
8160;BME280;27404;52.398;9.646;2023-07-29T05:58:01;99952.44;;;19.49;100.00
8160;BME280;27404;52.398;9.646;2023-07-29T06:00:26;99955.97;;;19.41;100.00
8160;BME280;27404;52.398;9.646;2023-07-29T06:02:52;99960.09;;;19.30;100.00
8160;BME280;27404;52.398;9.646;2023-07-29T06:05:17;99964.09;;;19.23;100.00
8160;BME280;27404;52.398;9.646;2023-07-29T06:07:42;99962.56;;;19.17;100.00
8160;BME280;27404;52.398;9.646;2023-07-29T06:10:13;99971.00;;;19.12;100.00
8160;BME280;27404;52.398;9.646;2023-07-29T06:12:39;99958.81;;;18.99;100.00
8160;BME280;27404;52.398;9.646;2023-07-29T06:15:08;99954.16;;;18.94;100.00
8160;BME280;27404;52.398;9.646;2023-07-29T06:17:33;99946.47;;;18.91;100.00
8160;BME280;27404;52.398;9.646;2023-07-29T06:19:59;99942.03;;;18.90;100.00
8160;BME280;27404;52.398;9.646;2023-07-29T06:22:24;99948.41;;;18.91;100.00
8160;BME280;27404;52.398;9.646;2023-07-29T06:24:50;99955.38;;;18.88;100.00
8160;BME280;27404;52.398;9.646;2023-07-29T06:27:15;99950.88;;;18.92;100.00
8160;BME280;27404;52.398;9.646;2023-07-29T06:29:41;99951.13;;;18.96;100.00
8160;BME280;27404;52.398;9.646;2023-07-29T06:32:06;99952.31;;;19.04;100.00
8160;BME280;27404;52.398;9.646;2023-07-29T06:34:32;99964.03;;;19.15;100.00
8160;BME280;27404;52.398;9.646;2023-07-29T06:36:57;99967.81;;;19.19;100.00
8160;BME280;27404;52.398;9.646;2023-07-29T06:39:23;99969.53;;;19.29;100.00
8160;BME280;27404;52.398;9.646;2023-07-29T06:41:48;99973.00;;;19.48;100.00
8160;BME280;27404;52.398;9.646;2023-07-29T06:44:13;99975.59;;;19.67;100.00
8160;BME280;27404;52.398;9.646;2023-07-29T06:46:39;99973.47;;;19.87;100.00
8160;BME280;27404;52.398;9.646;2023-07-29T06:49:05;99975.81;;;19.94;100.00
8160;BME280;27404;52.398;9.646;2023-07-29T06:51:31;99967.88;;;20.01;100.00
8160;BME280;27404;52.398;9.646;2023-07-29T06:53:59;99968.44;;;20.12;100.00
8160;BME280;27404;52.398;9.646;2023-07-29T06:56:25;99968.66;;;20.24;100.00
8160;BME280;27404;52.398;9.646;2023-07-29T06:58:50;99968.56;;;20.38;100.00
8160;BME280;27404;52.398;9.646;2023-07-29T07:01:16;99959.50;;;20.55;100.00
8160;BME280;27404;52.398;9.646;2023-07-29T07:03:41;99965.22;;;20.82;100.00
8160;BME280;27404;52.398;9.646;2023-07-29T07:06:07;99969.00;;;20.86;100.00
8160;BME280;27404;52.398;9.646;2023-07-29T07:08:33;99968.50;;;20.93;100.00
8160;BME280;27404;52.398;9.646;2023-07-29T07:10:58;99968.81;;;20.91;100.00
8160;BME280;27404;52.398;9.646;2023-07-29T07:13:23;99962.25;;;20.87;100.00
8160;BME280;27404;52.398;9.646;2023-07-29T07:15:49;99961.13;;;20.88;100.00
8160;BME280;27404;52.398;9.646;2023-07-29T07:18:14;99957.38;;;20.84;100.00
8160;BME280;27404;52.398;9.646;2023-07-29T07:20:40;99959.69;;;20.91;100.00
8160;BME280;27404;52.398;9.646;2023-07-29T07:23:05;99960.34;;;20.96;100.00
8160;BME280;27404;52.398;9.646;2023-07-29T07:25:33;99956.09;;;20.99;100.00
8160;BME280;27404;52.398;9.646;2023-07-29T07:27:59;99957.41;;;21.01;100.00
8160;BME280;27404;52.398;9.646;2023-07-29T07:30:25;99965.09;;;21.05;100.00
8160;BME280;27404;52.398;9.646;2023-07-29T07:32:50;99964.50;;;21.17;100.00
8160;BME280;27404;52.398;9.646;2023-07-29T07:35:15;99958.59;;;21.18;100.00
8160;BME280;27404;52.398;9.646;2023-07-29T07:37:41;99958.28;;;21.37;100.00
8160;BME280;27404;52.398;9.646;2023-07-29T07:40:07;99958.94;;;21.60;100.00
8160;BME280;27404;52.398;9.646;2023-07-29T07:42:32;99946.88;;;21.74;100.00
8160;BME280;27404;52.398;9.646;2023-07-29T07:44:58;99943.41;;;21.95;100.00
8160;BME280;27404;52.398;9.646;2023-07-29T07:47:23;99944.94;;;22.40;100.00
8160;BME280;27404;52.398;9.646;2023-07-29T07:49:49;99937.91;;;22.81;100.00
8160;BME280;27404;52.398;9.646;2023-07-29T07:52:15;99926.06;;;23.14;100.00
8160;BME280;27404;52.398;9.646;2023-07-29T07:54:40;99922.16;;;23.58;100.00
8160;BME280;27404;52.398;9.646;2023-07-29T07:57:06;99931.22;;;23.88;100.00
8160;BME280;27404;52.398;9.646;2023-07-29T07:59:31;99928.75;;;24.08;100.00
8160;BME280;27404;52.398;9.646;2023-07-29T08:01:57;99936.31;;;24.07;100.00
8160;BME280;27404;52.398;9.646;2023-07-29T08:04:22;99934.56;;;24.03;100.00
8160;BME280;27404;52.398;9.646;2023-07-29T08:06:48;99927.13;;;23.86;100.00
8160;BME280;27404;52.398;9.646;2023-07-29T08:09:13;99931.84;;;23.73;100.00
8160;BME280;27404;52.398;9.646;2023-07-29T08:11:40;99938.00;;;23.45;100.00
8160;BME280;27404;52.398;9.646;2023-07-29T08:14:05;99936.25;;;23.10;100.00
8160;BME280;27404;52.398;9.646;2023-07-29T08:16:31;99935.59;;;22.83;100.00
8160;BME280;27404;52.398;9.646;2023-07-29T08:18:56;99938.84;;;22.85;100.00
8160;BME280;27404;52.398;9.646;2023-07-29T08:21:21;99927.41;;;22.78;100.00
8160;BME280;27404;52.398;9.646;2023-07-29T08:23:47;99919.78;;;22.96;100.00
8160;BME280;27404;52.398;9.646;2023-07-29T08:26:12;99918.28;;;22.99;100.00
8160;BME280;27404;52.398;9.646;2023-07-29T08:28:39;99923.41;;;23.18;100.00
8160;BME280;27404;52.398;9.646;2023-07-29T08:31:05;99931.41;;;23.19;100.00
8160;BME280;27404;52.398;9.646;2023-07-29T08:33:31;99937.06;;;23.11;100.00
8160;BME280;27404;52.398;9.646;2023-07-29T08:35:58;99944.75;;;22.54;100.00
8160;BME280;27404;52.398;9.646;2023-07-29T08:38:24;99944.00;;;22.18;100.00
8160;BME280;27404;52.398;9.646;2023-07-29T08:41:06;99929.38;;;21.73;100.00
8160;BME280;27404;52.398;9.646;2023-07-29T08:43:38;99920.53;;;21.71;100.00
8160;BME280;27404;52.398;9.646;2023-07-29T08:46:04;99931.81;;;21.84;100.00
8160;BME280;27404;52.398;9.646;2023-07-29T08:48:36;99942.59;;;22.03;100.00
8160;BME280;27404;52.398;9.646;2023-07-29T08:51:05;99942.06;;;22.18;100.00
8160;BME280;27404;52.398;9.646;2023-07-29T08:53:31;99940.75;;;22.16;100.00
8160;BME280;27404;52.398;9.646;2023-07-29T08:55:57;99942.38;;;22.17;100.00
8160;BME280;27404;52.398;9.646;2023-07-29T08:58:23;99940.44;;;22.17;100.00
8160;BME280;27404;52.398;9.646;2023-07-29T09:00:50;99935.09;;;22.51;100.00
8160;BME280;27404;52.398;9.646;2023-07-29T09:03:15;99933.72;;;22.66;100.00
8160;BME280;27404;52.398;9.646;2023-07-29T09:05:41;99925.00;;;22.76;100.00
8160;BME280;27404;52.398;9.646;2023-07-29T09:08:07;99936.63;;;22.70;100.00
8160;BME280;27404;52.398;9.646;2023-07-29T09:10:36;99930.94;;;22.66;100.00
8160;BME280;27404;52.398;9.646;2023-07-29T09:13:05;99927.50;;;22.60;100.00
8160;BME280;27404;52.398;9.646;2023-07-29T09:15:33;99920.16;;;22.56;100.00
8160;BME280;27404;52.398;9.646;2023-07-29T09:17:59;99911.72;;;22.73;100.00
8160;BME280;27404;52.398;9.646;2023-07-29T09:20:33;99913.31;;;23.04;100.00
8160;BME280;27404;52.398;9.646;2023-07-29T09:22:59;99917.09;;;23.72;100.00
8160;BME280;27404;52.398;9.646;2023-07-29T09:25:29;99913.31;;;24.23;100.00
8160;BME280;27404;52.398;9.646;2023-07-29T09:28:01;99915.53;;;24.42;100.00
8160;BME280;27404;52.398;9.646;2023-07-29T09:30:27;99916.63;;;24.87;100.00
8160;BME280;27404;52.398;9.646;2023-07-29T09:32:57;99908.00;;;24.80;100.00
8160;BME280;27404;52.398;9.646;2023-07-29T09:35:23;99899.94;;;24.91;100.00
8160;BME280;27404;52.398;9.646;2023-07-29T09:37:51;99906.22;;;25.12;100.00
8160;BME280;27404;52.398;9.646;2023-07-29T09:40:17;99906.97;;;25.38;100.00
8160;BME280;27404;52.398;9.646;2023-07-29T09:42:50;99899.25;;;24.69;100.00
8160;BME280;27404;52.398;9.646;2023-07-29T09:45:26;99914.72;;;24.54;100.00
8160;BME280;27404;52.398;9.646;2023-07-29T09:47:57;99899.16;;;24.90;100.00
8160;BME280;27404;52.398;9.646;2023-07-29T09:50:24;99906.84;;;24.93;100.00
8160;BME280;27404;52.398;9.646;2023-07-29T09:52:50;99904.84;;;24.94;100.00
8160;BME280;27404;52.398;9.646;2023-07-29T09:55:21;99899.72;;;24.96;100.00
8160;BME280;27404;52.398;9.646;2023-07-29T09:57:56;99900.09;;;24.82;100.00
8160;BME280;27404;52.398;9.646;2023-07-29T10:00:22;99896.09;;;24.58;100.00
8160;BME280;27404;52.398;9.646;2023-07-29T10:02:48;99904.72;;;24.53;100.00
8160;BME280;27404;52.398;9.646;2023-07-29T10:05:15;99903.25;;;24.80;100.00
8160;BME280;27404;52.398;9.646;2023-07-29T10:07:40;99889.47;;;24.63;100.00
8160;BME280;27404;52.398;9.646;2023-07-29T10:10:07;99892.84;;;24.44;100.00
8160;BME280;27404;52.398;9.646;2023-07-29T10:12:34;99896.19;;;24.12;100.00
8160;BME280;27404;52.398;9.646;2023-07-29T10:15:02;99895.59;;;24.19;100.00
8160;BME280;27404;52.398;9.646;2023-07-29T10:17:29;99887.44;;;24.01;100.00
8160;BME280;27404;52.398;9.646;2023-07-29T10:19:55;99878.63;;;23.78;100.00
8160;BME280;27404;52.398;9.646;2023-07-29T10:22:24;99893.72;;;23.77;100.00
8160;BME280;27404;52.398;9.646;2023-07-29T10:24:56;99890.63;;;23.91;100.00
8160;BME280;27404;52.398;9.646;2023-07-29T10:27:25;99878.88;;;23.85;100.00
8160;BME280;27404;52.398;9.646;2023-07-29T10:29:55;99891.06;;;24.14;100.00
8160;BME280;27404;52.398;9.646;2023-07-29T10:32:25;99879.81;;;24.48;100.00
8160;BME280;27404;52.398;9.646;2023-07-29T10:34:54;99891.91;;;24.64;100.00
8160;BME280;27404;52.398;9.646;2023-07-29T10:37:20;99880.13;;;24.96;100.00
8160;BME280;27404;52.398;9.646;2023-07-29T10:39:54;99891.06;;;25.13;100.00
8160;BME280;27404;52.398;9.646;2023-07-29T10:42:20;99887.03;;;24.86;100.00
8160;BME280;27404;52.398;9.646;2023-07-29T10:44:50;99888.16;;;24.10;100.00
8160;BME280;27404;52.398;9.646;2023-07-29T10:47:19;99898.16;;;24.12;100.00
8160;BME280;27404;52.398;9.646;2023-07-29T10:49:47;99893.16;;;24.05;100.00
8160;BME280;27404;52.398;9.646;2023-07-29T10:52:16;99892.25;;;23.79;100.00
8160;BME280;27404;52.398;9.646;2023-07-29T10:54:52;99894.09;;;23.75;100.00
8160;BME280;27404;52.398;9.646;2023-07-29T10:57:35;99894.34;;;23.49;100.00
8160;BME280;27404;52.398;9.646;2023-07-29T11:00:03;99899.25;;;23.01;100.00
8160;BME280;27404;52.398;9.646;2023-07-29T11:02:31;99896.47;;;23.22;100.00
8160;BME280;27404;52.398;9.646;2023-07-29T11:04:57;99885.66;;;23.20;100.00
8160;BME280;27404;52.398;9.646;2023-07-29T11:07:24;99891.59;;;23.19;100.00
8160;BME280;27404;52.398;9.646;2023-07-29T11:09:54;99892.69;;;23.27;100.00
8160;BME280;27404;52.398;9.646;2023-07-29T11:15:27;99892.63;;;23.57;100.00
8160;BME280;27404;52.398;9.646;2023-07-29T11:17:55;99887.28;;;23.30;100.00
8160;BME280;27404;52.398;9.646;2023-07-29T11:20:23;99891.28;;;23.42;100.00
8160;BME280;27404;52.398;9.646;2023-07-29T11:22:50;99887.34;;;23.76;100.00
8160;BME280;27404;52.398;9.646;2023-07-29T11:25:17;99887.94;;;24.16;100.00
8160;BME280;27404;52.398;9.646;2023-07-29T11:27:44;99896.88;;;24.09;100.00
8160;BME280;27404;52.398;9.646;2023-07-29T11:30:12;99901.31;;;24.10;100.00
8160;BME280;27404;52.398;9.646;2023-07-29T11:32:39;99905.06;;;23.93;100.00
8160;BME280;27404;52.398;9.646;2023-07-29T11:35:09;99904.25;;;23.59;100.00
8160;BME280;27404;52.398;9.646;2023-07-29T11:37:36;99908.56;;;23.69;100.00
8160;BME280;27404;52.398;9.646;2023-07-29T11:40:03;99903.41;;;23.79;100.00
8160;BME280;27404;52.398;9.646;2023-07-29T11:42:32;99914.78;;;24.20;100.00
8160;BME280;27404;52.398;9.646;2023-07-29T11:44:58;99906.00;;;24.55;100.00
8160;BME280;27404;52.398;9.646;2023-07-29T11:47:24;99918.09;;;24.35;100.00
8160;BME280;27404;52.398;9.646;2023-07-29T11:49:50;99914.56;;;24.25;100.00
8160;BME280;27404;52.398;9.646;2023-07-29T11:52:15;99923.34;;;24.36;100.00
8160;BME280;27404;52.398;9.646;2023-07-29T11:54:44;99922.16;;;24.25;100.00
8160;BME280;27404;52.398;9.646;2023-07-29T11:57:10;99917.63;;;24.45;99.00
8160;BME280;27404;52.398;9.646;2023-07-29T11:59:37;99923.47;;;24.52;100.00
8160;BME280;27404;52.398;9.646;2023-07-29T12:02:09;99920.44;;;24.58;99.94
8160;BME280;27404;52.398;9.646;2023-07-29T12:04:37;99919.75;;;24.02;100.00
8160;BME280;27404;52.398;9.646;2023-07-29T12:07:04;99921.91;;;24.18;100.00
8160;BME280;27404;52.398;9.646;2023-07-29T12:09:29;99924.13;;;24.24;100.00
8160;BME280;27404;52.398;9.646;2023-07-29T12:11:56;99925.06;;;24.29;98.81
8160;BME280;27404;52.398;9.646;2023-07-29T12:14:21;99926.16;;;24.74;97.41
8160;BME280;27404;52.398;9.646;2023-07-29T12:16:48;99915.44;;;24.38;94.42
8160;BME280;27404;52.398;9.646;2023-07-29T12:19:15;99938.38;;;24.57;96.74
8160;BME280;27404;52.398;9.646;2023-07-29T12:21:44;99923.44;;;24.28;99.67
8160;BME280;27404;52.398;9.646;2023-07-29T12:24:12;99926.06;;;24.82;98.58
8160;BME280;27404;52.398;9.646;2023-07-29T12:26:39;99922.13;;;24.83;92.08
8160;BME280;27404;52.398;9.646;2023-07-29T12:29:18;99929.03;;;24.40;100.00
8160;BME280;27404;52.398;9.646;2023-07-29T12:31:46;99934.28;;;24.42;100.00
8160;BME280;27404;52.398;9.646;2023-07-29T12:34:19;99932.97;;;24.27;100.00
8160;BME280;27404;52.398;9.646;2023-07-29T12:36:50;99930.09;;;24.35;100.00
8160;BME280;27404;52.398;9.646;2023-07-29T12:39:19;99936.16;;;24.62;100.00
8160;BME280;27404;52.398;9.646;2023-07-29T12:41:45;99930.09;;;24.48;100.00
8160;BME280;27404;52.398;9.646;2023-07-29T12:44:11;99937.09;;;24.66;100.00
8160;BME280;27404;52.398;9.646;2023-07-29T12:46:36;99932.66;;;24.65;100.00
8160;BME280;27404;52.398;9.646;2023-07-29T12:49:02;99928.38;;;24.93;100.00
8160;BME280;27404;52.398;9.646;2023-07-29T12:51:27;99919.66;;;24.94;100.00
8160;BME280;27404;52.398;9.646;2023-07-29T12:53:54;99919.19;;;24.80;97.61
8160;BME280;27404;52.398;9.646;2023-07-29T12:56:19;99914.63;;;24.50;100.00
8160;BME280;27404;52.398;9.646;2023-07-29T12:58:45;99909.94;;;24.42;100.00
8160;BME280;27404;52.398;9.646;2023-07-29T13:01:11;99907.94;;;23.84;95.27
8160;BME280;27404;52.398;9.646;2023-07-29T13:03:42;99904.47;;;24.33;98.67
8160;BME280;27404;52.398;9.646;2023-07-29T13:06:07;99910.56;;;24.48;97.05